Garner, Kentucky
Current Conditions -  °F | °C
As of 7:15 PM on Sunday 23 Nov 2014 (Local Time) from KPBX Reporting Station
Light Rain Light Rain  
Wind Chill: 58°   Ceiling: 9000
Heat Index: 58°   Visibility: 10mi
Dew Point: 52°   Wind: 14mph
Humidity: 80%   Direction: 160°SSE
Pressure: 29.6"   Gusts: 30mph
Location:  37.36°N, 82.93°W
Report Text: KPBX 240015Z AUTO 16012G26KT 10SM -RA SCT060 SCT075 OVC090 15/11 A2960 RMK AO2 T01450111
Loading
Personal Weather Stations






























Interactive Weather Map New forecast layout! Learn more

10-Day Weather Forecast

Advertisements
Track Severe Weather on mobile